Terminal Aerodrome Forecast
Issued by NWS

Home | Current Version | Previous Version | Text Only | Print | Product List | Glossary On
Versions: 1 2 3 4 5 6 7 8 9 10 11 12 13 14
000
FTUS42 KGSP 301120
TAFGMU
TAF
KGMU 301120Z 3012/0112 24005KT P6SM SCT060
     FM301700 22010KT P6SM SCT060
      TEMPO 3018/3021 4SM TSRA BKN040CB
     FM302100 24013G23KT P6SM BKN060 PROB30 3021/3022 4SM TSRA
      BKN040CB
     FM010100 24010KT P6SM BKN060
     FM010600 25005KT P6SM SCT060=

USA.gov is the U.S. government's official web portal to all federal, state and local government web resources and services.